sensor_id;sensor_type;location;lat;lon;timestamp;temperature;humidity
57857;DHT22;43683;48.650;9.290;2022-12-20T00:01:47;1.80;93.10
57857;DHT22;43683;48.650;9.290;2022-12-20T00:04:12;1.70;93.30
57857;DHT22;43683;48.650;9.290;2022-12-20T00:06:38;1.70;93.30
57857;DHT22;43683;48.650;9.290;2022-12-20T00:09:05;1.70;93.40
57857;DHT22;43683;48.650;9.290;2022-12-20T00:11:31;1.70;93.40
57857;DHT22;43683;48.650;9.290;2022-12-20T00:13:57;1.70;93.30
57857;DHT22;43683;48.650;9.290;2022-12-20T00:16:25;1.70;93.30
57857;DHT22;43683;48.650;9.290;2022-12-20T00:18:53;1.70;93.20
57857;DHT22;43683;48.650;9.290;2022-12-20T00:21:19;1.80;93.10
57857;DHT22;43683;48.650;9.290;2022-12-20T00:23:45;1.80;93.00
57857;DHT22;43683;48.650;9.290;2022-12-20T00:26:13;1.70;93.00
57857;DHT22;43683;48.650;9.290;2022-12-20T00:28:40;1.70;93.10
57857;DHT22;43683;48.650;9.290;2022-12-20T00:31:07;1.50;93.20
57857;DHT22;43683;48.650;9.290;2022-12-20T00:33:34;1.40;93.30
57857;DHT22;43683;48.650;9.290;2022-12-20T00:36:00;1.30;93.40
57857;DHT22;43683;48.650;9.290;2022-12-20T00:38:26;1.20;93.50
57857;DHT22;43683;48.650;9.290;2022-12-20T00:41:03;1.10;93.60
57857;DHT22;43683;48.650;9.290;2022-12-20T00:43:29;1.10;93.70
57857;DHT22;43683;48.650;9.290;2022-12-20T00:45:55;1.00;93.70
57857;DHT22;43683;48.650;9.290;2022-12-20T00:48:22;1.00;93.70
57857;DHT22;43683;48.650;9.290;2022-12-20T00:50:47;1.00;93.70
57857;DHT22;43683;48.650;9.290;2022-12-20T00:53:13;1.00;93.70
57857;DHT22;43683;48.650;9.290;2022-12-20T00:55:43;1.00;93.70
57857;DHT22;43683;48.650;9.290;2022-12-20T00:58:09;1.00;93.70
57857;DHT22;43683;48.650;9.290;2022-12-20T01:00:36;1.10;93.60
57857;DHT22;43683;48.650;9.290;2022-12-20T01:03:02;1.20;93.60
57857;DHT22;43683;48.650;9.290;2022-12-20T01:05:28;1.30;93.50
57857;DHT22;43683;48.650;9.290;2022-12-20T01:07:53;1.40;93.30
57857;DHT22;43683;48.650;9.290;2022-12-20T01:10:19;1.50;93.20
57857;DHT22;43683;48.650;9.290;2022-12-20T01:12:44;1.50;93.00
57857;DHT22;43683;48.650;9.290;2022-12-20T01:15:10;1.60;93.00
57857;DHT22;43683;48.650;9.290;2022-12-20T01:17:36;1.60;93.00
57857;DHT22;43683;48.650;9.290;2022-12-20T01:20:02;1.50;93.00
57857;DHT22;43683;48.650;9.290;2022-12-20T01:22:28;1.50;93.10
57857;DHT22;43683;48.650;9.290;2022-12-20T01:24:54;1.60;93.10
57857;DHT22;43683;48.650;9.290;2022-12-20T01:27:20;1.70;93.00
57857;DHT22;43683;48.650;9.290;2022-12-20T01:29:45;1.70;93.00
57857;DHT22;43683;48.650;9.290;2022-12-20T01:32:11;1.70;93.00
57857;DHT22;43683;48.650;9.290;2022-12-20T01:34:36;1.60;93.10
57857;DHT22;43683;48.650;9.290;2022-12-20T01:37:02;1.60;93.20
57857;DHT22;43683;48.650;9.290;2022-12-20T01:39:28;1.70;93.20
57857;DHT22;43683;48.650;9.290;2022-12-20T01:41:53;1.70;93.20
57857;DHT22;43683;48.650;9.290;2022-12-20T01:46:46;1.80;93.10
57857;DHT22;43683;48.650;9.290;2022-12-20T01:52:09;1.90;93.10
57857;DHT22;43683;48.650;9.290;2022-12-20T01:54:40;1.90;93.10
57857;DHT22;43683;48.650;9.290;2022-12-20T01:57:11;1.90;93.10
57857;DHT22;43683;48.650;9.290;2022-12-20T01:59:39;1.90;93.10
57857;DHT22;43683;48.650;9.290;2022-12-20T02:02:08;1.90;93.10
57857;DHT22;43683;48.650;9.290;2022-12-20T02:04:35;1.90;93.10
57857;DHT22;43683;48.650;9.290;2022-12-20T02:07:02;1.90;93.00
57857;DHT22;43683;48.650;9.290;2022-12-20T02:09:29;2.00;93.00
57857;DHT22;43683;48.650;9.290;2022-12-20T02:12:09;2.00;93.00
57857;DHT22;43683;48.650;9.290;2022-12-20T02:14:44;2.00;93.20
57857;DHT22;43683;48.650;9.290;2022-12-20T02:31:13;2.20;92.80
57857;DHT22;43683;48.650;9.290;2022-12-20T02:33:42;2.30;92.70
57857;DHT22;43683;48.650;9.290;2022-12-20T02:36:10;2.20;92.70
57857;DHT22;43683;48.650;9.290;2022-12-20T02:38:37;2.30;92.80
57857;DHT22;43683;48.650;9.290;2022-12-20T02:41:21;2.20;92.90
57857;DHT22;43683;48.650;9.290;2022-12-20T02:43:55;2.20;93.00
57857;DHT22;43683;48.650;9.290;2022-12-20T02:46:41;2.10;93.00
57857;DHT22;43683;48.650;9.290;2022-12-20T02:49:11;2.10;93.00
57857;DHT22;43683;48.650;9.290;2022-12-20T02:51:39;2.10;93.00
57857;DHT22;43683;48.650;9.290;2022-12-20T02:54:06;2.10;93.00
57857;DHT22;43683;48.650;9.290;2022-12-20T02:56:43;2.10;93.00
57857;DHT22;43683;48.650;9.290;2022-12-20T02:59:25;2.10;93.00
57857;DHT22;43683;48.650;9.290;2022-12-20T03:01:53;2.20;92.90
57857;DHT22;43683;48.650;9.290;2022-12-20T03:04:23;2.20;92.90
57857;DHT22;43683;48.650;9.290;2022-12-20T03:07:10;2.20;92.90
57857;DHT22;43683;48.650;9.290;2022-12-20T03:09:38;2.20;92.90
57857;DHT22;43683;48.650;9.290;2022-12-20T03:12:05;2.20;92.90
57857;DHT22;43683;48.650;9.290;2022-12-20T03:14:31;2.20;92.90
57857;DHT22;43683;48.650;9.290;2022-12-20T03:16:57;2.30;92.90
57857;DHT22;43683;48.650;9.290;2022-12-20T03:19:23;2.30;92.90
57857;DHT22;43683;48.650;9.290;2022-12-20T03:21:48;2.30;93.00
57857;DHT22;43683;48.650;9.290;2022-12-20T03:24:14;2.30;93.00
57857;DHT22;43683;48.650;9.290;2022-12-20T03:26:40;2.20;93.00
57857;DHT22;43683;48.650;9.290;2022-12-20T03:29:05;2.20;93.00
57857;DHT22;43683;48.650;9.290;2022-12-20T03:31:31;2.10;93.10
57857;DHT22;43683;48.650;9.290;2022-12-20T03:33:57;2.00;93.20
57857;DHT22;43683;48.650;9.290;2022-12-20T03:36:22;1.90;93.20
57857;DHT22;43683;48.650;9.290;2022-12-20T03:38:49;1.90;93.30
57857;DHT22;43683;48.650;9.290;2022-12-20T03:41:15;1.80;93.30
57857;DHT22;43683;48.650;9.290;2022-12-20T03:43:41;1.60;93.40
57857;DHT22;43683;48.650;9.290;2022-12-20T03:46:07;1.50;93.60
57857;DHT22;43683;48.650;9.290;2022-12-20T03:48:32;1.30;93.70
57857;DHT22;43683;48.650;9.290;2022-12-20T03:50:58;1.10;93.90
57857;DHT22;43683;48.650;9.290;2022-12-20T03:53:23;1.10;94.00
57857;DHT22;43683;48.650;9.290;2022-12-20T03:55:49;1.10;94.00
57857;DHT22;43683;48.650;9.290;2022-12-20T03:58:14;1.10;94.00
57857;DHT22;43683;48.650;9.290;2022-12-20T04:00:40;1.20;93.90
57857;DHT22;43683;48.650;9.290;2022-12-20T04:03:05;1.20;93.80
57857;DHT22;43683;48.650;9.290;2022-12-20T04:05:31;1.30;93.70
57857;DHT22;43683;48.650;9.290;2022-12-20T04:07:56;1.40;93.50
57857;DHT22;43683;48.650;9.290;2022-12-20T04:10:22;1.50;93.40
57857;DHT22;43683;48.650;9.290;2022-12-20T04:12:47;1.50;93.40
57857;DHT22;43683;48.650;9.290;2022-12-20T04:15:13;1.50;93.30
57857;DHT22;43683;48.650;9.290;2022-12-20T04:17:38;1.60;93.20
57857;DHT22;43683;48.650;9.290;2022-12-20T04:20:05;1.70;93.20
57857;DHT22;43683;48.650;9.290;2022-12-20T04:22:50;1.70;93.10
57857;DHT22;43683;48.650;9.290;2022-12-20T04:25:17;1.80;93.00
57857;DHT22;43683;48.650;9.290;2022-12-20T04:27:44;1.90;92.90
57857;DHT22;43683;48.650;9.290;2022-12-20T04:30:11;2.00;92.80
57857;DHT22;43683;48.650;9.290;2022-12-20T04:32:37;2.10;92.80
57857;DHT22;43683;48.650;9.290;2022-12-20T04:35:03;2.10;92.80
57857;DHT22;43683;48.650;9.290;2022-12-20T04:37:30;2.20;92.80
57857;DHT22;43683;48.650;9.290;2022-12-20T04:39:55;2.20;92.80
57857;DHT22;43683;48.650;9.290;2022-12-20T04:42:22;2.20;92.80
57857;DHT22;43683;48.650;9.290;2022-12-20T04:44:48;2.20;92.80
57857;DHT22;43683;48.650;9.290;2022-12-20T04:47:14;2.20;92.90
57857;DHT22;43683;48.650;9.290;2022-12-20T04:49:39;2.20;92.80
57857;DHT22;43683;48.650;9.290;2022-12-20T04:52:04;2.20;92.80
57857;DHT22;43683;48.650;9.290;2022-12-20T04:54:49;2.30;92.80
57857;DHT22;43683;48.650;9.290;2022-12-20T04:57:14;2.30;92.80
57857;DHT22;43683;48.650;9.290;2022-12-20T04:59:40;2.30;92.80
57857;DHT22;43683;48.650;9.290;2022-12-20T05:02:06;2.30;92.80
57857;DHT22;43683;48.650;9.290;2022-12-20T05:04:31;2.30;92.80
57857;DHT22;43683;48.650;9.290;2022-12-20T05:06:57;2.30;92.70
57857;DHT22;43683;48.650;9.290;2022-12-20T05:09:22;2.30;92.80
57857;DHT22;43683;48.650;9.290;2022-12-20T05:11:48;2.40;92.80
57857;DHT22;43683;48.650;9.290;2022-12-20T05:14:14;2.40;92.80
57857;DHT22;43683;48.650;9.290;2022-12-20T05:16:39;2.40;92.80
57857;DHT22;43683;48.650;9.290;2022-12-20T05:19:05;2.40;92.80
57857;DHT22;43683;48.650;9.290;2022-12-20T05:21:30;2.50;92.80
57857;DHT22;43683;48.650;9.290;2022-12-20T05:24:15;2.50;92.80
57857;DHT22;43683;48.650;9.290;2022-12-20T05:26:59;2.50;92.80
57857;DHT22;43683;48.650;9.290;2022-12-20T05:29:24;2.50;92.80
57857;DHT22;43683;48.650;9.290;2022-12-20T05:31:50;2.50;92.80
57857;DHT22;43683;48.650;9.290;2022-12-20T05:34:16;2.50;92.80
57857;DHT22;43683;48.650;9.290;2022-12-20T05:36:42;2.50;92.80
57857;DHT22;43683;48.650;9.290;2022-12-20T05:39:09;2.50;92.80
57857;DHT22;43683;48.650;9.290;2022-12-20T05:41:36;2.40;92.80
57857;DHT22;43683;48.650;9.290;2022-12-20T05:44:02;2.40;92.90
57857;DHT22;43683;48.650;9.290;2022-12-20T05:46:27;2.40;92.80
57857;DHT22;43683;48.650;9.290;2022-12-20T05:48:53;2.50;92.80
57857;DHT22;43683;48.650;9.290;2022-12-20T05:51:18;2.50;92.80
57857;DHT22;43683;48.650;9.290;2022-12-20T05:53:44;2.50;92.80
57857;DHT22;43683;48.650;9.290;2022-12-20T05:56:10;2.40;92.80
57857;DHT22;43683;48.650;9.290;2022-12-20T05:58:35;2.40;92.90
57857;DHT22;43683;48.650;9.290;2022-12-20T06:01:03;2.40;93.00
57857;DHT22;43683;48.650;9.290;2022-12-20T06:03:29;2.30;93.00
57857;DHT22;43683;48.650;9.290;2022-12-20T06:05:55;2.30;93.10
57857;DHT22;43683;48.650;9.290;2022-12-20T06:08:20;2.20;93.10
57857;DHT22;43683;48.650;9.290;2022-12-20T06:10:47;2.20;93.20
57857;DHT22;43683;48.650;9.290;2022-12-20T06:13:13;2.20;93.20
57857;DHT22;43683;48.650;9.290;2022-12-20T06:15:39;2.10;93.20
57857;DHT22;43683;48.650;9.290;2022-12-20T06:18:05;2.10;93.20
57857;DHT22;43683;48.650;9.290;2022-12-20T06:20:31;2.00;93.30
57857;DHT22;43683;48.650;9.290;2022-12-20T06:22:57;2.00;93.40
57857;DHT22;43683;48.650;9.290;2022-12-20T06:25:23;2.00;93.40
57857;DHT22;43683;48.650;9.290;2022-12-20T06:27:48;1.90;93.40
57857;DHT22;43683;48.650;9.290;2022-12-20T06:30:14;1.90;93.40
57857;DHT22;43683;48.650;9.290;2022-12-20T06:32:40;2.00;93.50
57857;DHT22;43683;48.650;9.290;2022-12-20T06:35:06;2.00;93.40
57857;DHT22;43683;48.650;9.290;2022-12-20T06:37:32;2.10;93.30
57857;DHT22;43683;48.650;9.290;2022-12-20T06:39:57;2.20;93.30
57857;DHT22;43683;48.650;9.290;2022-12-20T06:42:23;2.20;93.20
57857;DHT22;43683;48.650;9.290;2022-12-20T06:44:49;2.20;93.10
57857;DHT22;43683;48.650;9.290;2022-12-20T06:47:14;2.30;93.10
57857;DHT22;43683;48.650;9.290;2022-12-20T06:49:40;2.30;93.10
57857;DHT22;43683;48.650;9.290;2022-12-20T06:52:05;2.30;93.10
57857;DHT22;43683;48.650;9.290;2022-12-20T06:54:31;2.30;93.10
57857;DHT22;43683;48.650;9.290;2022-12-20T06:56:56;2.30;93.10
57857;DHT22;43683;48.650;9.290;2022-12-20T06:59:22;2.40;93.10
57857;DHT22;43683;48.650;9.290;2022-12-20T07:01:47;2.40;93.10
57857;DHT22;43683;48.650;9.290;2022-12-20T07:04:13;2.40;93.00
57857;DHT22;43683;48.650;9.290;2022-12-20T07:06:38;2.40;93.00
57857;DHT22;43683;48.650;9.290;2022-12-20T07:09:04;2.50;93.00
57857;DHT22;43683;48.650;9.290;2022-12-20T07:11:30;2.50;93.00
57857;DHT22;43683;48.650;9.290;2022-12-20T07:13:56;2.60;92.90
57857;DHT22;43683;48.650;9.290;2022-12-20T07:16:22;2.60;93.00
57857;DHT22;43683;48.650;9.290;2022-12-20T07:18:50;2.60;92.90
57857;DHT22;43683;48.650;9.290;2022-12-20T07:21:18;2.60;92.90
57857;DHT22;43683;48.650;9.290;2022-12-20T07:23:44;2.60;92.90
57857;DHT22;43683;48.650;9.290;2022-12-20T07:26:10;2.70;92.80
57857;DHT22;43683;48.650;9.290;2022-12-20T07:28:36;2.70;92.80
57857;DHT22;43683;48.650;9.290;2022-12-20T07:31:02;2.70;92.80
57857;DHT22;43683;48.650;9.290;2022-12-20T07:33:29;2.80;92.80
57857;DHT22;43683;48.650;9.290;2022-12-20T07:36:06;2.80;92.80
57857;DHT22;43683;48.650;9.290;2022-12-20T07:38:32;2.80;92.80
57857;DHT22;43683;48.650;9.290;2022-12-20T07:41:00;2.90;92.70
57857;DHT22;43683;48.650;9.290;2022-12-20T07:43:25;2.90;92.60
57857;DHT22;43683;48.650;9.290;2022-12-20T07:45:55;3.00;92.60
57857;DHT22;43683;48.650;9.290;2022-12-20T07:48:21;3.00;92.90
57857;DHT22;43683;48.650;9.290;2022-12-20T07:50:48;3.00;92.70
57857;DHT22;43683;48.650;9.290;2022-12-20T07:53:15;2.90;92.70
57857;DHT22;43683;48.650;9.290;2022-12-20T07:55:42;3.00;92.80
57857;DHT22;43683;48.650;9.290;2022-12-20T07:58:08;3.00;92.80
57857;DHT22;43683;48.650;9.290;2022-12-20T08:00:35;3.10;92.80
57857;DHT22;43683;48.650;9.290;2022-12-20T08:03:06;3.20;92.70
57857;DHT22;43683;48.650;9.290;2022-12-20T08:05:33;3.40;92.70
57857;DHT22;43683;48.650;9.290;2022-12-20T08:08:01;3.50;92.80
57857;DHT22;43683;48.650;9.290;2022-12-20T08:10:27;3.60;92.40
57857;DHT22;43683;48.650;9.290;2022-12-20T08:12:53;3.70;92.40
57857;DHT22;43683;48.650;9.290;2022-12-20T08:15:19;3.80;92.40
57857;DHT22;43683;48.650;9.290;2022-12-20T08:17:47;3.90;92.40
57857;DHT22;43683;48.650;9.290;2022-12-20T08:20:13;4.00;92.30
57857;DHT22;43683;48.650;9.290;2022-12-20T08:22:39;4.10;92.30
57857;DHT22;43683;48.650;9.290;2022-12-20T08:25:05;4.20;92.20
57857;DHT22;43683;48.650;9.290;2022-12-20T08:27:31;4.30;92.10
57857;DHT22;43683;48.650;9.290;2022-12-20T08:29:56;4.40;92.10
57857;DHT22;43683;48.650;9.290;2022-12-20T08:32:22;4.50;92.00
57857;DHT22;43683;48.650;9.290;2022-12-20T08:34:47;4.50;92.00
57857;DHT22;43683;48.650;9.290;2022-12-20T08:37:15;4.60;92.00
57857;DHT22;43683;48.650;9.290;2022-12-20T08:39:42;4.70;92.00
57857;DHT22;43683;48.650;9.290;2022-12-20T08:42:07;4.70;92.00
57857;DHT22;43683;48.650;9.290;2022-12-20T08:44:33;4.80;91.90
57857;DHT22;43683;48.650;9.290;2022-12-20T08:46:58;4.90;91.80
57857;DHT22;43683;48.650;9.290;2022-12-20T08:49:24;5.00;91.80
57857;DHT22;43683;48.650;9.290;2022-12-20T08:51:49;5.10;91.70
57857;DHT22;43683;48.650;9.290;2022-12-20T08:54:15;5.10;91.70
57857;DHT22;43683;48.650;9.290;2022-12-20T08:56:42;5.20;91.70
57857;DHT22;43683;48.650;9.290;2022-12-20T08:59:07;5.30;91.60
57857;DHT22;43683;48.650;9.290;2022-12-20T09:01:33;5.40;91.60
57857;DHT22;43683;48.650;9.290;2022-12-20T09:03:58;5.40;91.50
57857;DHT22;43683;48.650;9.290;2022-12-20T09:06:24;5.50;91.50
57857;DHT22;43683;48.650;9.290;2022-12-20T09:08:50;5.60;91.40
57857;DHT22;43683;48.650;9.290;2022-12-20T09:11:21;5.60;91.40
57857;DHT22;43683;48.650;9.290;2022-12-20T09:13:48;5.70;91.40
57857;DHT22;43683;48.650;9.290;2022-12-20T09:16:17;5.70;91.30
57857;DHT22;43683;48.650;9.290;2022-12-20T09:18:43;5.70;91.30
57857;DHT22;43683;48.650;9.290;2022-12-20T09:21:12;5.60;91.30
57857;DHT22;43683;48.650;9.290;2022-12-20T09:23:39;5.60;91.40
57857;DHT22;43683;48.650;9.290;2022-12-20T09:26:07;5.60;91.40
57857;DHT22;43683;48.650;9.290;2022-12-20T09:28:33;5.60;91.40
57857;DHT22;43683;48.650;9.290;2022-12-20T09:31:00;5.70;91.30
57857;DHT22;43683;48.650;9.290;2022-12-20T09:33:26;5.70;91.30
57857;DHT22;43683;48.650;9.290;2022-12-20T09:35:52;5.80;91.30
57857;DHT22;43683;48.650;9.290;2022-12-20T09:38:18;5.80;91.30
57857;DHT22;43683;48.650;9.290;2022-12-20T09:40:46;5.90;91.20
57857;DHT22;43683;48.650;9.290;2022-12-20T09:43:14;5.90;91.20
57857;DHT22;43683;48.650;9.290;2022-12-20T09:45:40;6.00;91.20
57857;DHT22;43683;48.650;9.290;2022-12-20T09:48:15;6.00;91.10
57857;DHT22;43683;48.650;9.290;2022-12-20T09:50:55;6.20;91.10
57857;DHT22;43683;48.650;9.290;2022-12-20T09:53:43;6.30;90.90
57857;DHT22;43683;48.650;9.290;2022-12-20T09:56:23;6.60;91.10
57857;DHT22;43683;48.650;9.290;2022-12-20T09:59:09;6.70;90.70
57857;DHT22;43683;48.650;9.290;2022-12-20T10:01:36;7.00;90.50
57857;DHT22;43683;48.650;9.290;2022-12-20T10:04:10;7.20;90.20
57857;DHT22;43683;48.650;9.290;2022-12-20T10:07:02;7.40;90.00
57857;DHT22;43683;48.650;9.290;2022-12-20T10:10:09;7.60;89.90
57857;DHT22;43683;48.650;9.290;2022-12-20T10:12:58;7.80;89.60
57857;DHT22;43683;48.650;9.290;2022-12-20T10:15:40;7.90;89.30
57857;DHT22;43683;48.650;9.290;2022-12-20T10:18:26;7.90;89.20
57857;DHT22;43683;48.650;9.290;2022-12-20T10:21:16;7.90;89.50
57857;DHT22;43683;48.650;9.290;2022-12-20T10:24:01;7.90;89.80
57857;DHT22;43683;48.650;9.290;2022-12-20T10:26:28;7.80;90.00
57857;DHT22;43683;48.650;9.290;2022-12-20T10:28:54;7.80;90.00
57857;DHT22;43683;48.650;9.290;2022-12-20T10:31:20;7.80;90.00
57857;DHT22;43683;48.650;9.290;2022-12-20T10:33:46;7.80;90.00
57857;DHT22;43683;48.650;9.290;2022-12-20T10:36:21;7.70;90.00
57857;DHT22;43683;48.650;9.290;2022-12-20T10:38:50;7.60;90.00
57857;DHT22;43683;48.650;9.290;2022-12-20T10:41:19;7.40;90.10
57857;DHT22;43683;48.650;9.290;2022-12-20T10:46:21;7.20;90.20
57857;DHT22;43683;48.650;9.290;2022-12-20T10:48:47;7.20;90.30
57857;DHT22;43683;48.650;9.290;2022-12-20T10:51:16;7.10;90.30
57857;DHT22;43683;48.650;9.290;2022-12-20T10:54:01;7.10;90.20
57857;DHT22;43683;48.650;9.290;2022-12-20T10:56:29;7.10;90.10
57857;DHT22;43683;48.650;9.290;2022-12-20T11:01:47;7.00;90.10
57857;DHT22;43683;48.650;9.290;2022-12-20T11:04:33;7.00;90.10
57857;DHT22;43683;48.650;9.290;2022-12-20T11:07:01;6.90;90.10
57857;DHT22;43683;48.650;9.290;2022-12-20T11:09:34;6.90;90.10
57857;DHT22;43683;48.650;9.290;2022-12-20T11:14:26;6.90;90.10
57857;DHT22;43683;48.650;9.290;2022-12-20T11:16:53;6.80;90.00
57857;DHT22;43683;48.650;9.290;2022-12-20T11:25:10;6.90;89.80
57857;DHT22;43683;48.650;9.290;2022-12-20T11:27:56;7.00;89.70
57857;DHT22;43683;48.650;9.290;2022-12-20T11:30:46;7.00;89.60
57857;DHT22;43683;48.650;9.290;2022-12-20T11:36:36;6.90;89.50
57857;DHT22;43683;48.650;9.290;2022-12-20T11:39:00;7.00;89.40
57857;DHT22;43683;48.650;9.290;2022-12-20T11:41:35;7.10;89.10
57857;DHT22;43683;48.650;9.290;2022-12-20T11:47:20;7.30;88.60
57857;DHT22;43683;48.650;9.290;2022-12-20T11:50:24;7.40;88.20
57857;DHT22;43683;48.650;9.290;2022-12-20T11:53:01;7.60;87.90
57857;DHT22;43683;48.650;9.290;2022-12-20T11:55:35;7.60;87.60
57857;DHT22;43683;48.650;9.290;2022-12-20T11:58:16;7.60;87.60
57857;DHT22;43683;48.650;9.290;2022-12-20T12:00:59;7.70;87.60
57857;DHT22;43683;48.650;9.290;2022-12-20T12:03:31;7.60;87.60
57857;DHT22;43683;48.650;9.290;2022-12-20T12:06:15;7.50;88.00
57857;DHT22;43683;48.650;9.290;2022-12-20T12:08:58;7.50;88.00
57857;DHT22;43683;48.650;9.290;2022-12-20T12:11:32;7.40;88.00
57857;DHT22;43683;48.650;9.290;2022-12-20T12:14:01;7.40;88.20
57857;DHT22;43683;48.650;9.290;2022-12-20T12:16:34;7.30;88.40
57857;DHT22;43683;48.650;9.290;2022-12-20T12:19:02;7.20;88.50
57857;DHT22;43683;48.650;9.290;2022-12-20T12:21:36;7.10;88.60
57857;DHT22;43683;48.650;9.290;2022-12-20T12:24:20;7.00;88.80
57857;DHT22;43683;48.650;9.290;2022-12-20T12:26:47;6.90;89.00
57857;DHT22;43683;48.650;9.290;2022-12-20T12:29:17;6.90;89.20
57857;DHT22;43683;48.650;9.290;2022-12-20T12:32:09;6.80;89.10
57857;DHT22;43683;48.650;9.290;2022-12-20T12:37:45;6.80;89.00
57857;DHT22;43683;48.650;9.290;2022-12-20T12:45:58;7.10;88.40
57857;DHT22;43683;48.650;9.290;2022-12-20T12:48:37;7.20;88.00
57857;DHT22;43683;48.650;9.290;2022-12-20T12:51:04;7.30;87.80
57857;DHT22;43683;48.650;9.290;2022-12-20T12:53:47;7.40;87.70
57857;DHT22;43683;48.650;9.290;2022-12-20T13:01:53;7.20;88.10
57857;DHT22;43683;48.650;9.290;2022-12-20T13:09:35;7.20;87.80
57857;DHT22;43683;48.650;9.290;2022-12-20T13:14:58;7.20;87.80
57857;DHT22;43683;48.650;9.290;2022-12-20T13:19:54;7.30;87.70
57857;DHT22;43683;48.650;9.290;2022-12-20T13:22:24;7.30;87.60
57857;DHT22;43683;48.650;9.290;2022-12-20T13:25:01;7.20;87.60
57857;DHT22;43683;48.650;9.290;2022-12-20T13:27:38;7.20;87.80
57857;DHT22;43683;48.650;9.290;2022-12-20T13:33:02;7.10;88.20
57857;DHT22;43683;48.650;9.290;2022-12-20T13:36:00;7.10;88.10
57857;DHT22;43683;48.650;9.290;2022-12-20T13:44:33;7.00;88.50
57857;DHT22;43683;48.650;9.290;2022-12-20T13:47:05;6.90;88.50
57857;DHT22;43683;48.650;9.290;2022-12-20T13:49:39;6.80;88.60
57857;DHT22;43683;48.650;9.290;2022-12-20T13:54:44;6.80;88.50
57857;DHT22;43683;48.650;9.290;2022-12-20T13:57:23;6.70;89.20
57857;DHT22;43683;48.650;9.290;2022-12-20T13:59:52;6.70;88.60
57857;DHT22;43683;48.650;9.290;2022-12-20T14:02:32;6.70;88.70
57857;DHT22;43683;48.650;9.290;2022-12-20T14:05:22;6.70;88.70
57857;DHT22;43683;48.650;9.290;2022-12-20T14:08:13;6.80;88.70
57857;DHT22;43683;48.650;9.290;2022-12-20T14:10:40;6.90;88.60
57857;DHT22;43683;48.650;9.290;2022-12-20T14:13:23;7.20;89.00
57857;DHT22;43683;48.650;9.290;2022-12-20T14:15:49;7.80;88.90
57857;DHT22;43683;48.650;9.290;2022-12-20T14:18:25;8.10;88.40
57857;DHT22;43683;48.650;9.290;2022-12-20T14:20:56;8.20;87.70
57857;DHT22;43683;48.650;9.290;2022-12-20T14:23:34;8.10;87.70
57857;DHT22;43683;48.650;9.290;2022-12-20T14:26:01;8.10;87.80
57857;DHT22;43683;48.650;9.290;2022-12-20T14:28:41;8.20;88.30
57857;DHT22;43683;48.650;9.290;2022-12-20T14:31:32;8.30;88.00
57857;DHT22;43683;48.650;9.290;2022-12-20T14:36:39;7.80;88.60
57857;DHT22;43683;48.650;9.290;2022-12-20T14:39:22;7.60;89.00
57857;DHT22;43683;48.650;9.290;2022-12-20T14:41:55;7.40;89.20
57857;DHT22;43683;48.650;9.290;2022-12-20T14:44:22;7.30;89.20
57857;DHT22;43683;48.650;9.290;2022-12-20T14:46:53;7.20;89.00
57857;DHT22;43683;48.650;9.290;2022-12-20T14:49:27;7.20;88.90
57857;DHT22;43683;48.650;9.290;2022-12-20T14:52:15;7.00;88.90
57857;DHT22;43683;48.650;9.290;2022-12-20T14:54:47;6.80;89.00
57857;DHT22;43683;48.650;9.290;2022-12-20T14:57:31;6.70;89.30
57857;DHT22;43683;48.650;9.290;2022-12-20T15:10:53;6.10;89.40
57857;DHT22;43683;48.650;9.290;2022-12-20T15:13:32;6.10;89.50
57857;DHT22;43683;48.650;9.290;2022-12-20T15:15:59;6.00;89.60
57857;DHT22;43683;48.650;9.290;2022-12-20T15:18:25;6.00;89.60
57857;DHT22;43683;48.650;9.290;2022-12-20T15:21:00;5.90;89.60
57857;DHT22;43683;48.650;9.290;2022-12-20T15:23:27;5.90;89.60
57857;DHT22;43683;48.650;9.290;2022-12-20T15:25:53;5.80;89.60
57857;DHT22;43683;48.650;9.290;2022-12-20T15:28:22;5.70;89.70
57857;DHT22;43683;48.650;9.290;2022-12-20T15:30:48;5.60;89.90
57857;DHT22;43683;48.650;9.290;2022-12-20T15:33:20;5.50;90.00
57857;DHT22;43683;48.650;9.290;2022-12-20T15:35:46;5.50;90.00
57857;DHT22;43683;48.650;9.290;2022-12-20T15:38:14;5.40;90.30
57857;DHT22;43683;48.650;9.290;2022-12-20T15:40:42;5.30;90.00
57857;DHT22;43683;48.650;9.290;2022-12-20T15:43:12;5.30;90.10
57857;DHT22;43683;48.650;9.290;2022-12-20T15:45:38;5.20;90.10
57857;DHT22;43683;48.650;9.290;2022-12-20T15:48:04;5.20;90.10
57857;DHT22;43683;48.650;9.290;2022-12-20T15:50:30;5.10;90.10
57857;DHT22;43683;48.650;9.290;2022-12-20T15:52:55;5.20;90.20
57857;DHT22;43683;48.650;9.290;2022-12-20T15:55:22;5.20;90.10
57857;DHT22;43683;48.650;9.290;2022-12-20T15:57:48;5.20;90.10
57857;DHT22;43683;48.650;9.290;2022-12-20T16:00:14;5.20;90.10
57857;DHT22;43683;48.650;9.290;2022-12-20T16:02:39;5.10;90.10
57857;DHT22;43683;48.650;9.290;2022-12-20T16:05:05;5.00;90.10
57857;DHT22;43683;48.650;9.290;2022-12-20T16:07:33;5.00;90.20
57857;DHT22;43683;48.650;9.290;2022-12-20T16:09:58;4.90;90.20
57857;DHT22;43683;48.650;9.290;2022-12-20T16:12:27;4.90;90.30
57857;DHT22;43683;48.650;9.290;2022-12-20T16:14:53;4.90;90.30
57857;DHT22;43683;48.650;9.290;2022-12-20T16:17:19;4.90;90.30
57857;DHT22;43683;48.650;9.290;2022-12-20T16:19:45;4.90;90.30
57857;DHT22;43683;48.650;9.290;2022-12-20T16:22:15;4.80;90.30
57857;DHT22;43683;48.650;9.290;2022-12-20T16:24:42;4.80;90.30
57857;DHT22;43683;48.650;9.290;2022-12-20T16:27:08;4.80;90.30
57857;DHT22;43683;48.650;9.290;2022-12-20T16:29:34;4.80;90.40
57857;DHT22;43683;48.650;9.290;2022-12-20T16:31:59;4.80;90.70
57857;DHT22;43683;48.650;9.290;2022-12-20T16:34:25;4.80;90.40
57857;DHT22;43683;48.650;9.290;2022-12-20T16:36:50;4.80;90.40
57857;DHT22;43683;48.650;9.290;2022-12-20T16:39:16;4.80;90.40
57857;DHT22;43683;48.650;9.290;2022-12-20T16:41:42;4.80;90.50
57857;DHT22;43683;48.650;9.290;2022-12-20T16:44:14;4.80;90.50
57857;DHT22;43683;48.650;9.290;2022-12-20T16:46:40;4.80;90.50
57857;DHT22;43683;48.650;9.290;2022-12-20T16:49:09;4.90;90.50
57857;DHT22;43683;48.650;9.290;2022-12-20T16:51:45;4.90;90.40
57857;DHT22;43683;48.650;9.290;2022-12-20T16:54:17;4.90;90.40
57857;DHT22;43683;48.650;9.290;2022-12-20T16:56:48;4.90;90.40
57857;DHT22;43683;48.650;9.290;2022-12-20T16:59:16;4.90;90.40
57857;DHT22;43683;48.650;9.290;2022-12-20T17:01:42;4.90;90.50
57857;DHT22;43683;48.650;9.290;2022-12-20T17:04:13;4.80;90.50
57857;DHT22;43683;48.650;9.290;2022-12-20T17:06:39;4.90;90.50
57857;DHT22;43683;48.650;9.290;2022-12-20T17:09:04;4.90;90.50
57857;DHT22;43683;48.650;9.290;2022-12-20T17:11:31;4.90;90.60
57857;DHT22;43683;48.650;9.290;2022-12-20T17:13:57;4.90;90.50
57857;DHT22;43683;48.650;9.290;2022-12-20T17:16:23;4.90;90.50
57857;DHT22;43683;48.650;9.290;2022-12-20T17:18:51;4.90;90.50
57857;DHT22;43683;48.650;9.290;2022-12-20T17:21:35;4.90;90.60
57857;DHT22;43683;48.650;9.290;2022-12-20T17:24:02;4.90;90.60
57857;DHT22;43683;48.650;9.290;2022-12-20T17:26:29;4.90;90.60
57857;DHT22;43683;48.650;9.290;2022-12-20T17:28:55;4.90;90.70